sensor_id;sensor_type;location;lat;lon;timestamp;P1;durP1;ratioP1;P2;durP2;ratioP2
48627;SDS011;34424;52.234;6.500;2022-07-06T00:01:49;3.92;;;3.50;;
48627;SDS011;34424;52.234;6.500;2022-07-06T00:06:53;6.87;;;3.57;;
48627;SDS011;34424;52.234;6.500;2022-07-06T00:11:56;6.13;;;3.35;;
48627;SDS011;34424;52.234;6.500;2022-07-06T00:16:58;3.92;;;2.83;;
48627;SDS011;34424;52.234;6.500;2022-07-06T00:22:02;4.03;;;2.97;;
48627;SDS011;34424;52.234;6.500;2022-07-06T00:27:05;7.22;;;2.80;;
48627;SDS011;34424;52.234;6.500;2022-07-06T00:32:07;4.47;;;2.60;;
48627;SDS011;34424;52.234;6.500;2022-07-06T00:37:11;2.83;;;2.40;;
48627;SDS011;34424;52.234;6.500;2022-07-06T00:42:16;5.57;;;2.78;;
48627;SDS011;34424;52.234;6.500;2022-07-06T00:47:18;4.28;;;2.92;;
48627;SDS011;34424;52.234;6.500;2022-07-06T00:52:22;4.47;;;2.70;;
48627;SDS011;34424;52.234;6.500;2022-07-06T00:57:25;5.28;;;2.60;;
48627;SDS011;34424;52.234;6.500;2022-07-06T01:02:30;5.40;;;3.03;;
48627;SDS011;34424;52.234;6.500;2022-07-06T01:07:34;5.95;;;2.63;;
48627;SDS011;34424;52.234;6.500;2022-07-06T01:12:38;3.50;;;2.50;;
48627;SDS011;34424;52.234;6.500;2022-07-06T01:22:44;4.38;;;2.65;;
48627;SDS011;34424;52.234;6.500;2022-07-06T01:27:47;5.38;;;2.95;;
48627;SDS011;34424;52.234;6.500;2022-07-06T01:32:50;4.20;;;3.00;;
48627;SDS011;34424;52.234;6.500;2022-07-06T01:37:54;5.43;;;3.37;;
48627;SDS011;34424;52.234;6.500;2022-07-06T01:42:56;4.25;;;3.28;;
48627;SDS011;34424;52.234;6.500;2022-07-06T01:47:58;2.92;;;2.63;;
48627;SDS011;34424;52.234;6.500;2022-07-06T01:53:02;4.32;;;2.97;;
48627;SDS011;34424;52.234;6.500;2022-07-06T01:58:05;4.43;;;2.97;;
48627;SDS011;34424;52.234;6.500;2022-07-06T02:03:08;7.28;;;3.10;;
48627;SDS011;34424;52.234;6.500;2022-07-06T02:13:14;5.28;;;3.22;;
48627;SDS011;34424;52.234;6.500;2022-07-06T02:18:16;4.25;;;2.63;;
48627;SDS011;34424;52.234;6.500;2022-07-06T02:23:19;5.20;;;3.07;;
48627;SDS011;34424;52.234;6.500;2022-07-06T02:28:23;3.03;;;2.70;;
48627;SDS011;34424;52.234;6.500;2022-07-06T02:33:26;7.28;;;3.20;;
48627;SDS011;34424;52.234;6.500;2022-07-06T02:38:29;3.28;;;2.38;;
48627;SDS011;34424;52.234;6.500;2022-07-06T02:43:33;7.55;;;2.90;;
48627;SDS011;34424;52.234;6.500;2022-07-06T02:48:35;3.67;;;2.58;;
48627;SDS011;34424;52.234;6.500;2022-07-06T02:53:38;2.90;;;2.63;;
48627;SDS011;34424;52.234;6.500;2022-07-06T02:58:42;4.33;;;2.57;;
48627;SDS011;34424;52.234;6.500;2022-07-06T03:03:44;3.13;;;2.60;;
48627;SDS011;34424;52.234;6.500;2022-07-06T03:08:47;2.57;;;2.37;;
48627;SDS011;34424;52.234;6.500;2022-07-06T03:13:50;4.43;;;2.60;;
48627;SDS011;34424;52.234;6.500;2022-07-06T03:18:53;3.50;;;2.40;;
48627;SDS011;34424;52.234;6.500;2022-07-06T03:23:55;5.00;;;2.37;;
48627;SDS011;34424;52.234;6.500;2022-07-06T03:28:59;4.45;;;2.53;;
48627;SDS011;34424;52.234;6.500;2022-07-06T03:34:02;5.40;;;2.90;;
48627;SDS011;34424;52.234;6.500;2022-07-06T03:39:04;4.00;;;2.80;;
48627;SDS011;34424;52.234;6.500;2022-07-06T03:44:08;4.65;;;2.78;;
48627;SDS011;34424;52.234;6.500;2022-07-06T03:49:11;3.88;;;2.63;;
48627;SDS011;34424;52.234;6.500;2022-07-06T03:54:13;7.30;;;2.83;;
48627;SDS011;34424;52.234;6.500;2022-07-06T03:59:17;7.10;;;2.92;;
48627;SDS011;34424;52.234;6.500;2022-07-06T04:04:19;4.78;;;2.70;;
48627;SDS011;34424;52.234;6.500;2022-07-06T04:09:22;5.10;;;3.20;;
48627;SDS011;34424;52.234;6.500;2022-07-06T04:14:26;4.57;;;2.50;;
48627;SDS011;34424;52.234;6.500;2022-07-06T04:19:28;3.40;;;2.75;;
48627;SDS011;34424;52.234;6.500;2022-07-06T04:24:31;3.13;;;2.83;;
48627;SDS011;34424;52.234;6.500;2022-07-06T04:29:35;3.47;;;2.78;;
48627;SDS011;34424;52.234;6.500;2022-07-06T04:34:37;4.72;;;2.72;;
48627;SDS011;34424;52.234;6.500;2022-07-06T04:39:39;6.28;;;3.30;;
48627;SDS011;34424;52.234;6.500;2022-07-06T04:44:44;5.20;;;2.67;;
48627;SDS011;34424;52.234;6.500;2022-07-06T04:49:47;3.13;;;2.72;;
48627;SDS011;34424;52.234;6.500;2022-07-06T04:54:49;4.35;;;3.10;;
48627;SDS011;34424;52.234;6.500;2022-07-06T04:59:53;4.83;;;2.97;;
48627;SDS011;34424;52.234;6.500;2022-07-06T05:04:56;3.97;;;2.83;;
48627;SDS011;34424;52.234;6.500;2022-07-06T05:09:58;6.20;;;3.00;;
48627;SDS011;34424;52.234;6.500;2022-07-06T05:15:02;8.05;;;3.03;;
48627;SDS011;34424;52.234;6.500;2022-07-06T05:20:06;4.25;;;3.42;;
48627;SDS011;34424;52.234;6.500;2022-07-06T05:25:08;6.05;;;2.95;;
48627;SDS011;34424;52.234;6.500;2022-07-06T05:30:12;4.60;;;2.83;;
48627;SDS011;34424;52.234;6.500;2022-07-06T05:35:16;7.47;;;2.72;;
48627;SDS011;34424;52.234;6.500;2022-07-06T05:40:39;4.82;;;3.08;;
48627;SDS011;34424;52.234;6.500;2022-07-06T05:45:42;3.70;;;2.47;;
48627;SDS011;34424;52.234;6.500;2022-07-06T05:50:45;5.70;;;2.80;;
48627;SDS011;34424;52.234;6.500;2022-07-06T05:55:47;3.37;;;2.33;;
48627;SDS011;34424;52.234;6.500;2022-07-06T06:00:51;3.73;;;2.30;;
48627;SDS011;34424;52.234;6.500;2022-07-06T06:05:54;3.65;;;2.65;;
48627;SDS011;34424;52.234;6.500;2022-07-06T06:10:56;3.00;;;2.00;;
48627;SDS011;34424;52.234;6.500;2022-07-06T06:16:00;3.37;;;2.23;;
48627;SDS011;34424;52.234;6.500;2022-07-06T06:21:03;5.65;;;1.95;;
48627;SDS011;34424;52.234;6.500;2022-07-06T06:26:05;2.80;;;2.13;;
48627;SDS011;34424;52.234;6.500;2022-07-06T06:31:09;3.63;;;1.73;;
48627;SDS011;34424;52.234;6.500;2022-07-06T06:36:11;3.70;;;1.88;;
48627;SDS011;34424;52.234;6.500;2022-07-06T06:41:14;4.20;;;1.20;;
48627;SDS011;34424;52.234;6.500;2022-07-06T06:46:18;3.53;;;1.37;;
48627;SDS011;34424;52.234;6.500;2022-07-06T06:51:20;1.45;;;1.02;;
48627;SDS011;34424;52.234;6.500;2022-07-06T06:56:24;2.90;;;1.00;;
48627;SDS011;34424;52.234;6.500;2022-07-06T07:01:28;3.20;;;0.90;;
48627;SDS011;34424;52.234;6.500;2022-07-06T07:06:31;4.70;;;1.15;;
48627;SDS011;34424;52.234;6.500;2022-07-06T07:11:33;10.25;;;2.03;;
48627;SDS011;34424;52.234;6.500;2022-07-06T07:21:39;4.22;;;1.02;;
48627;SDS011;34424;52.234;6.500;2022-07-06T07:26:42;2.60;;;1.30;;
48627;SDS011;34424;52.234;6.500;2022-07-06T07:31:44;2.15;;;1.40;;
48627;SDS011;34424;52.234;6.500;2022-07-06T07:36:48;4.97;;;1.50;;
48627;SDS011;34424;52.234;6.500;2022-07-06T07:41:51;1.73;;;1.00;;
48627;SDS011;34424;52.234;6.500;2022-07-06T07:46:53;2.45;;;0.90;;
48627;SDS011;34424;52.234;6.500;2022-07-06T07:51:57;1.42;;;0.90;;
48627;SDS011;34424;52.234;6.500;2022-07-06T07:57:00;1.63;;;0.90;;
48627;SDS011;34424;52.234;6.500;2022-07-06T08:02:03;1.52;;;0.90;;
48627;SDS011;34424;52.234;6.500;2022-07-06T08:07:07;1.48;;;0.85;;
48627;SDS011;34424;52.234;6.500;2022-07-06T08:12:09;2.65;;;0.70;;
48627;SDS011;34424;52.234;6.500;2022-07-06T08:17:12;2.25;;;0.70;;
48627;SDS011;34424;52.234;6.500;2022-07-06T08:27:18;1.67;;;0.80;;
48627;SDS011;34424;52.234;6.500;2022-07-06T08:32:21;2.50;;;0.60;;
48627;SDS011;34424;52.234;6.500;2022-07-06T08:37:44;3.95;;;1.27;;
48627;SDS011;34424;52.234;6.500;2022-07-06T08:47:51;2.40;;;1.45;;
48627;SDS011;34424;52.234;6.500;2022-07-06T08:52:56;1.02;;;0.60;;
48627;SDS011;34424;52.234;6.500;2022-07-06T08:57:59;1.17;;;0.80;;
48627;SDS011;34424;52.234;6.500;2022-07-06T09:08:06;2.53;;;0.70;;
48627;SDS011;34424;52.234;6.500;2022-07-06T09:13:09;1.08;;;0.70;;
48627;SDS011;34424;52.234;6.500;2022-07-06T09:18:11;1.38;;;0.50;;
48627;SDS011;34424;52.234;6.500;2022-07-06T09:23:16;1.05;;;0.40;;
48627;SDS011;34424;52.234;6.500;2022-07-06T09:28:18;1.35;;;0.75;;
48627;SDS011;34424;52.234;6.500;2022-07-06T09:33:21;1.20;;;0.52;;
48627;SDS011;34424;52.234;6.500;2022-07-06T09:38:26;2.03;;;0.47;;
48627;SDS011;34424;52.234;6.500;2022-07-06T09:43:29;1.38;;;0.70;;
48627;SDS011;34424;52.234;6.500;2022-07-06T09:48:34;2.20;;;0.60;;
48627;SDS011;34424;52.234;6.500;2022-07-06T09:53:39;0.98;;;0.65;;
48627;SDS011;34424;52.234;6.500;2022-07-06T09:58:41;1.55;;;0.43;;
48627;SDS011;34424;52.234;6.500;2022-07-06T10:04:03;0.52;;;0.40;;
48627;SDS011;34424;52.234;6.500;2022-07-06T10:09:09;0.60;;;0.50;;
48627;SDS011;34424;52.234;6.500;2022-07-06T10:14:14;1.63;;;0.80;;
48627;SDS011;34424;52.234;6.500;2022-07-06T10:19:18;1.00;;;0.47;;
48627;SDS011;34424;52.234;6.500;2022-07-06T10:24:22;6.10;;;1.02;;
48627;SDS011;34424;52.234;6.500;2022-07-06T10:29:25;1.33;;;0.50;;
48627;SDS011;34424;52.234;6.500;2022-07-06T10:34:28;1.65;;;0.68;;
48627;SDS011;34424;52.234;6.500;2022-07-06T10:39:35;1.40;;;0.57;;
48627;SDS011;34424;52.234;6.500;2022-07-06T10:44:56;3.85;;;0.45;;
48627;SDS011;34424;52.234;6.500;2022-07-06T10:49:58;1.40;;;0.60;;
48627;SDS011;34424;52.234;6.500;2022-07-06T10:55:03;1.63;;;0.50;;
48627;SDS011;34424;52.234;6.500;2022-07-06T11:00:06;0.75;;;0.52;;
48627;SDS011;34424;52.234;6.500;2022-07-06T11:05:10;1.85;;;0.60;;
48627;SDS011;34424;52.234;6.500;2022-07-06T11:10:15;0.70;;;0.50;;
48627;SDS011;34424;52.234;6.500;2022-07-06T11:20:35;1.73;;;0.55;;
48627;SDS011;34424;52.234;6.500;2022-07-06T11:25:40;1.92;;;0.50;;
48627;SDS011;34424;52.234;6.500;2022-07-06T11:30:44;2.50;;;0.75;;
48627;SDS011;34424;52.234;6.500;2022-07-06T11:35:49;0.93;;;0.57;;
48627;SDS011;34424;52.234;6.500;2022-07-06T11:40:54;1.15;;;0.50;;
48627;SDS011;34424;52.234;6.500;2022-07-06T11:45:56;2.85;;;0.40;;
48627;SDS011;34424;52.234;6.500;2022-07-06T11:50:59;1.17;;;0.60;;
48627;SDS011;34424;52.234;6.500;2022-07-06T11:56:03;2.92;;;0.90;;
48627;SDS011;34424;52.234;6.500;2022-07-06T12:01:07;0.90;;;0.50;;
48627;SDS011;34424;52.234;6.500;2022-07-06T12:06:14;1.52;;;0.40;;
48627;SDS011;34424;52.234;6.500;2022-07-06T12:11:20;1.13;;;0.50;;
48627;SDS011;34424;52.234;6.500;2022-07-06T12:16:28;2.13;;;0.65;;
48627;SDS011;34424;52.234;6.500;2022-07-06T12:21:32;2.85;;;0.93;;
48627;SDS011;34424;52.234;6.500;2022-07-06T12:26:39;1.45;;;0.40;;
48627;SDS011;34424;52.234;6.500;2022-07-06T12:31:43;1.00;;;0.57;;
48627;SDS011;34424;52.234;6.500;2022-07-06T12:36:46;0.77;;;0.40;;
48627;SDS011;34424;52.234;6.500;2022-07-06T12:41:50;1.60;;;0.50;;
48627;SDS011;34424;52.234;6.500;2022-07-06T12:47:01;3.35;;;0.60;;
48627;SDS011;34424;52.234;6.500;2022-07-06T12:52:08;3.00;;;0.57;;
48627;SDS011;34424;52.234;6.500;2022-07-06T12:57:13;0.80;;;0.35;;
48627;SDS011;34424;52.234;6.500;2022-07-06T13:02:19;2.88;;;0.75;;
48627;SDS011;34424;52.234;6.500;2022-07-06T13:07:44;2.03;;;0.82;;
48627;SDS011;34424;52.234;6.500;2022-07-06T13:12:48;1.27;;;0.50;;
48627;SDS011;34424;52.234;6.500;2022-07-06T13:17:50;0.85;;;0.40;;
48627;SDS011;34424;52.234;6.500;2022-07-06T13:22:53;3.15;;;0.60;;
48627;SDS011;34424;52.234;6.500;2022-07-06T13:27:57;2.38;;;0.70;;
48627;SDS011;34424;52.234;6.500;2022-07-06T13:32:59;2.83;;;0.80;;
48627;SDS011;34424;52.234;6.500;2022-07-06T13:38:02;2.35;;;0.80;;
48627;SDS011;34424;52.234;6.500;2022-07-06T13:43:05;1.42;;;0.45;;
48627;SDS011;34424;52.234;6.500;2022-07-06T13:48:08;1.10;;;0.60;;
48627;SDS011;34424;52.234;6.500;2022-07-06T13:53:10;1.20;;;0.70;;
48627;SDS011;34424;52.234;6.500;2022-07-06T13:58:14;2.22;;;0.60;;
48627;SDS011;34424;52.234;6.500;2022-07-06T14:03:16;2.53;;;0.75;;
48627;SDS011;34424;52.234;6.500;2022-07-06T14:08:19;6.88;;;1.08;;
48627;SDS011;34424;52.234;6.500;2022-07-06T14:13:23;2.83;;;0.63;;
48627;SDS011;34424;52.234;6.500;2022-07-06T14:18:26;1.90;;;0.68;;
48627;SDS011;34424;52.234;6.500;2022-07-06T14:23:29;0.65;;;0.60;;
48627;SDS011;34424;52.234;6.500;2022-07-06T14:28:33;1.60;;;0.65;;
48627;SDS011;34424;52.234;6.500;2022-07-06T14:33:35;3.40;;;0.52;;
48627;SDS011;34424;52.234;6.500;2022-07-06T14:38:37;1.10;;;0.50;;
48627;SDS011;34424;52.234;6.500;2022-07-06T14:43:41;1.60;;;0.60;;
48627;SDS011;34424;52.234;6.500;2022-07-06T14:48:44;1.48;;;0.77;;
48627;SDS011;34424;52.234;6.500;2022-07-06T14:53:47;5.60;;;1.02;;
48627;SDS011;34424;52.234;6.500;2022-07-06T14:58:50;3.50;;;0.60;;
48627;SDS011;34424;52.234;6.500;2022-07-06T15:04:13;3.13;;;0.60;;
48627;SDS011;34424;52.234;6.500;2022-07-06T15:09:15;1.90;;;0.82;;
48627;SDS011;34424;52.234;6.500;2022-07-06T15:14:19;2.25;;;1.02;;
48627;SDS011;34424;52.234;6.500;2022-07-06T15:19:22;2.53;;;1.00;;
48627;SDS011;34424;52.234;6.500;2022-07-06T15:24:24;3.05;;;1.00;;
48627;SDS011;34424;52.234;6.500;2022-07-06T15:29:28;3.42;;;0.82;;
48627;SDS011;34424;52.234;6.500;2022-07-06T15:34:31;4.25;;;0.90;;
48627;SDS011;34424;52.234;6.500;2022-07-06T15:44:37;1.67;;;0.85;;
48627;SDS011;34424;52.234;6.500;2022-07-06T15:49:39;0.68;;;0.68;;
48627;SDS011;34424;52.234;6.500;2022-07-06T15:54:42;2.33;;;0.70;;
48627;SDS011;34424;52.234;6.500;2022-07-06T15:59:45;1.55;;;0.90;;
48627;SDS011;34424;52.234;6.500;2022-07-06T16:04:48;2.50;;;1.15;;
48627;SDS011;34424;52.234;6.500;2022-07-06T16:09:50;3.38;;;0.90;;
48627;SDS011;34424;52.234;6.500;2022-07-06T16:14:54;1.88;;;0.90;;
48627;SDS011;34424;52.234;6.500;2022-07-06T16:19:57;1.13;;;0.90;;
48627;SDS011;34424;52.234;6.500;2022-07-06T16:24:59;2.45;;;0.85;;
48627;SDS011;34424;52.234;6.500;2022-07-06T16:30:08;2.10;;;0.65;;
48627;SDS011;34424;52.234;6.500;2022-07-06T16:35:12;2.35;;;1.15;;
48627;SDS011;34424;52.234;6.500;2022-07-06T16:40:14;1.48;;;0.80;;
48627;SDS011;34424;52.234;6.500;2022-07-06T16:45:18;1.42;;;1.10;;
48627;SDS011;34424;52.234;6.500;2022-07-06T16:50:21;4.97;;;1.55;;
48627;SDS011;34424;52.234;6.500;2022-07-06T16:55:24;3.08;;;1.00;;
48627;SDS011;34424;52.234;6.500;2022-07-06T17:00:28;5.18;;;1.25;;
48627;SDS011;34424;52.234;6.500;2022-07-06T17:05:31;2.85;;;1.38;;
48627;SDS011;34424;52.234;6.500;2022-07-06T17:10:33;3.08;;;1.98;;
48627;SDS011;34424;52.234;6.500;2022-07-06T17:15:37;2.67;;;1.63;;
48627;SDS011;34424;52.234;6.500;2022-07-06T17:20:39;1.80;;;1.23;;
48627;SDS011;34424;52.234;6.500;2022-07-06T17:25:42;5.20;;;1.45;;
48627;SDS011;34424;52.234;6.500;2022-07-06T17:30:46;2.25;;;1.63;;
48627;SDS011;34424;52.234;6.500;2022-07-06T17:35:50;3.50;;;1.30;;
48627;SDS011;34424;52.234;6.500;2022-07-06T17:40:53;4.25;;;1.40;;
48627;SDS011;34424;52.234;6.500;2022-07-06T17:45:57;2.97;;;1.85;;
48627;SDS011;34424;52.234;6.500;2022-07-06T17:50:59;3.33;;;1.88;;
48627;SDS011;34424;52.234;6.500;2022-07-06T17:56:02;2.53;;;1.48;;
48627;SDS011;34424;52.234;6.500;2022-07-06T18:01:06;3.95;;;1.60;;
48627;SDS011;34424;52.234;6.500;2022-07-06T18:06:08;3.58;;;1.95;;
48627;SDS011;34424;52.234;6.500;2022-07-06T18:11:11;3.40;;;1.50;;
48627;SDS011;34424;52.234;6.500;2022-07-06T18:16:16;4.10;;;1.85;;
48627;SDS011;34424;52.234;6.500;2022-07-06T18:21:18;4.30;;;2.25;;
48627;SDS011;34424;52.234;6.500;2022-07-06T18:26:21;3.33;;;1.67;;
48627;SDS011;34424;52.234;6.500;2022-07-06T18:31:24;3.03;;;1.60;;
48627;SDS011;34424;52.234;6.500;2022-07-06T18:36:27;3.00;;;1.65;;
48627;SDS011;34424;52.234;6.500;2022-07-06T18:41:31;3.00;;;1.50;;
48627;SDS011;34424;52.234;6.500;2022-07-06T18:46:35;3.78;;;1.98;;
48627;SDS011;34424;52.234;6.500;2022-07-06T18:51:37;4.00;;;1.98;;
48627;SDS011;34424;52.234;6.500;2022-07-06T18:56:40;2.17;;;1.75;;
48627;SDS011;34424;52.234;6.500;2022-07-06T19:01:44;3.47;;;2.13;;
48627;SDS011;34424;52.234;6.500;2022-07-06T19:06:47;3.85;;;2.30;;
48627;SDS011;34424;52.234;6.500;2022-07-06T19:11:49;3.58;;;2.33;;
48627;SDS011;34424;52.234;6.500;2022-07-06T19:16:53;4.95;;;3.15;;
48627;SDS011;34424;52.234;6.500;2022-07-06T19:21:56;5.10;;;3.05;;
48627;SDS011;34424;52.234;6.500;2022-07-06T19:26:59;7.63;;;3.70;;
48627;SDS011;34424;52.234;6.500;2022-07-06T19:32:03;5.60;;;3.92;;
48627;SDS011;34424;52.234;6.500;2022-07-06T19:37:05;5.43;;;4.35;;
48627;SDS011;34424;52.234;6.500;2022-07-06T19:42:08;6.75;;;3.88;;
48627;SDS011;34424;52.234;6.500;2022-07-06T19:47:12;5.90;;;3.83;;
48627;SDS011;34424;52.234;6.500;2022-07-06T19:52:15;7.63;;;3.80;;
48627;SDS011;34424;52.234;6.500;2022-07-06T19:57:18;4.32;;;3.50;;
48627;SDS011;34424;52.234;6.500;2022-07-06T20:02:21;4.93;;;3.63;;
48627;SDS011;34424;52.234;6.500;2022-07-06T20:07:25;5.60;;;3.53;;
48627;SDS011;34424;52.234;6.500;2022-07-06T20:12:27;6.05;;;3.60;;
48627;SDS011;34424;52.234;6.500;2022-07-06T20:17:31;5.18;;;3.40;;
48627;SDS011;34424;52.234;6.500;2022-07-06T20:22:34;3.88;;;3.05;;
48627;SDS011;34424;52.234;6.500;2022-07-06T20:27:36;4.63;;;3.42;;
48627;SDS011;34424;52.234;6.500;2022-07-06T20:32:40;5.07;;;2.87;;
48627;SDS011;34424;52.234;6.500;2022-07-06T20:37:43;6.35;;;3.28;;
48627;SDS011;34424;52.234;6.500;2022-07-06T20:42:45;6.03;;;3.03;;
48627;SDS011;34424;52.234;6.500;2022-07-06T20:48:11;5.10;;;3.60;;
48627;SDS011;34424;52.234;6.500;2022-07-06T20:53:14;5.90;;;3.40;;
48627;SDS011;34424;52.234;6.500;2022-07-06T20:58:16;6.25;;;3.20;;
48627;SDS011;34424;52.234;6.500;2022-07-06T21:03:20;4.67;;;3.10;;
48627;SDS011;34424;52.234;6.500;2022-07-06T21:08:30;4.78;;;3.53;;
48627;SDS011;34424;52.234;6.500;2022-07-06T21:13:33;4.07;;;3.63;;
48627;SDS011;34424;52.234;6.500;2022-07-06T21:18:36;6.00;;;4.90;;
48627;SDS011;34424;52.234;6.500;2022-07-06T21:23:39;5.57;;;3.85;;
48627;SDS011;34424;52.234;6.500;2022-07-06T21:28:42;5.47;;;3.97;;
48627;SDS011;34424;52.234;6.500;2022-07-06T21:33:45;7.15;;;4.65;;
48627;SDS011;34424;52.234;6.500;2022-07-06T21:38:48;8.63;;;4.50;;
48627;SDS011;34424;52.234;6.500;2022-07-06T21:43:50;5.63;;;4.50;;
48627;SDS011;34424;52.234;6.500;2022-07-06T21:48:54;7.15;;;4.65;;
48627;SDS011;34424;52.234;6.500;2022-07-06T21:53:57;10.77;;;4.85;;
48627;SDS011;34424;52.234;6.500;2022-07-06T21:58:59;5.40;;;4.37;;
48627;SDS011;34424;52.234;6.500;2022-07-06T22:04:06;5.63;;;4.03;;
48627;SDS011;34424;52.234;6.500;2022-07-06T22:09:09;6.20;;;4.32;;
48627;SDS011;34424;52.234;6.500;2022-07-06T22:14:11;4.60;;;4.10;;
48627;SDS011;34424;52.234;6.500;2022-07-06T22:24:18;5.63;;;4.32;;
48627;SDS011;34424;52.234;6.500;2022-07-06T22:29:21;4.85;;;3.83;;
48627;SDS011;34424;52.234;6.500;2022-07-06T22:34:23;8.40;;;3.90;;
48627;SDS011;34424;52.234;6.500;2022-07-06T22:39:28;7.13;;;3.70;;
48627;SDS011;34424;52.234;6.500;2022-07-06T22:44:30;4.70;;;3.13;;
48627;SDS011;34424;52.234;6.500;2022-07-06T22:49:33;6.03;;;3.15;;
48627;SDS011;34424;52.234;6.500;2022-07-06T22:54:36;3.90;;;3.40;;
48627;SDS011;34424;52.234;6.500;2022-07-06T22:59:39;4.47;;;3.55;;
48627;SDS011;34424;52.234;6.500;2022-07-06T23:04:42;4.75;;;3.53;;
48627;SDS011;34424;52.234;6.500;2022-07-06T23:09:46;6.47;;;4.43;;
48627;SDS011;34424;52.234;6.500;2022-07-06T23:14:48;5.30;;;4.38;;
48627;SDS011;34424;52.234;6.500;2022-07-06T23:19:53;4.35;;;3.65;;
48627;SDS011;34424;52.234;6.500;2022-07-06T23:24:56;6.10;;;4.32;;
48627;SDS011;34424;52.234;6.500;2022-07-06T23:29:59;6.45;;;4.78;;
48627;SDS011;34424;52.234;6.500;2022-07-06T23:35:02;8.32;;;5.03;;
48627;SDS011;34424;52.234;6.500;2022-07-06T23:40:06;5.57;;;5.07;;
48627;SDS011;34424;52.234;6.500;2022-07-06T23:45:09;6.45;;;4.63;;
48627;SDS011;34424;52.234;6.500;2022-07-06T23:50:11;5.82;;;5.20;;
48627;SDS011;34424;52.234;6.500;2022-07-06T23:55:15;7.72;;;4.80;;
